TONO2: Salt Fork Arkansas R., Tonkawa, OK

Data processed at Mon May 02 23:36:14 2016 Central Daylight Time


All information presented herein is the property of the government of the United States of America and may be revised or deleted at any time without prior notice.
Dissemination of this information without the expressed written consent of the Public Affairs Office, Tulsa District U.S. Army Corps of Engineers is strictly prohibited.
These data are gathered electronically and, as presented, have not undergone any form of quality control. These data are not guaranteed to be valid or correct.
Go to home page.
Go to station list.
Go to station map.

Upstream stations:

Downstream station: Previous Day
Next Day
Current Day

Display graphics.
Display DCP transmissions.


    
    SHEF ID:       TONO2     Salt Fork Arkansas R., Tonkawa, OK
    STATION TYPE:  STREAM GAGE
    Regulation Limits:  Stage =   17.00, Flow =   10377
    
                    STAGE  STAGE(2)  RIV-FLOW  BAT-LOAD
                     FEET      FEET       CFS     VOLTS
                     GOES      GOES      GOES      GOES
       (Cen)
    05/02 01:00      7.20      7.51      1783     12.65
    05/02 02:00      7.17      7.49      1764     12.65
    05/02 03:00      7.14      7.41      1745     12.57
    05/02 04:00      7.12      7.40      1733     12.57
    05/02 05:00      7.10      7.41      1720     12.57
    05/02 06:00      7.08      7.42      1708     12.49
    05/02 07:00      7.04      7.34      1685     12.49
    05/02 08:00      6.99      7.36      1656     12.57
    05/02 09:00      6.95      7.19      1633     13.53
    05/02 10:00      6.91      7.23      1611     13.84
    05/02 11:00      6.89      7.19      1599     13.68
    05/02 12:00      6.83      7.09      1566     13.76
    05/02 13:00      6.81      7.04      1554     13.84
    05/02 14:00      6.73      6.99      1510     13.53
    05/02 15:00      6.70      6.94      1494     13.68
    05/02 16:00      6.65      6.89      1468     13.44
    05/02 17:00      6.59      6.84      1437     13.44
    05/02 18:00      6.53      6.78      1406     13.44
    05/02 19:00      6.49      6.75      1386     13.37
    05/02 20:00      6.45      6.70      1365     13.29
    05/02 21:00      6.43      6.64      1355     12.89
    05/02 22:00      6.39      6.60      1335     12.73
    05/02 23:00      6.34      6.55      1309     12.65
    05/03 00:00      ----      ----      ----      ----